Time;durP1;ratioP1;P1;durP2;ratioP2;P2;SDS_P1;SDS_P2;PMS_P1;PMS_P2;Temp;Humidity;BMP_temperature;BMP_pressure;BME280_temperature;BME280_humidity;BME280_pressure;Samples;Min_cycle;Max_cycle;Signal;HPM_P1;HPM_P2
2022/02/06 00:02:16;;;;;;;18.40;8.90;;;;;;;-3.34;100.00;98942.05;1723120;82;21005;-70
2022/02/06 00:04:42;;;;;;;20.93;9.57;;;;;;;-3.35;100.00;98942.50;1722522;82;20989;-69
2022/02/06 00:07:09;;;;;;;21.63;10.13;;;;;;;-3.33;100.00;98934.01;1744300;82;21005;-70
2022/02/06 00:09:37;;;;;;;16.57;8.80;;;;;;;-3.33;100.00;98926.08;1744219;82;21525;-69
2022/02/06 00:12:06;;;;;;;18.73;9.70;;;;;;;-3.33;100.00;98908.89;1768800;79;20978;-69
2022/02/06 00:14:34;;;;;;;19.03;9.63;;;;;;;-3.33;100.00;98909.34;1779929;80;21503;-69
2022/02/06 00:17:03;;;;;;;18.50;9.77;;;;;;;-3.34;100.00;98901.91;1777484;80;21022;-69
2022/02/06 00:19:30;;;;;;;18.33;9.60;;;;;;;-3.34;100.00;98897.94;1780542;80;21518;-68
2022/02/06 00:21:57;;;;;;;17.60;9.07;;;;;;;-3.35;100.00;98890.95;1778266;80;21021;-69
2022/02/06 00:24:34;;;;;;;18.13;9.50;;;;;;;-3.34;100.00;98886.05;1720504;81;21480;-69
2022/02/06 00:32:05;;;;;;;19.27;9.97;;;;;;;-3.39;100.00;98874.95;1671064;85;21017;-70
2022/02/06 00:39:50;;;;;;;18.40;9.30;;;;;;;-3.37;100.00;98855.02;1672561;85;21039;-69
2022/02/06 00:42:18;;;;;;;18.40;9.37;;;;;;;-3.36;100.00;98840.38;1666194;85;21038;-69
2022/02/06 00:44:45;;;;;;;19.17;9.90;;;;;;;-3.35;100.00;98830.15;1670426;85;21062;-68
2022/02/06 00:47:12;;;;;;;19.53;9.77;;;;;;;-3.34;100.00;98812.03;1667446;85;21031;-69
2022/02/06 00:49:40;;;;;;;17.83;9.63;;;;;;;-3.37;100.00;98807.45;1647334;84;21101;-69
2022/02/06 00:52:13;;;;;;;19.40;10.20;;;;;;;-3.38;100.00;98797.36;1652000;85;21040;-68
2022/02/06 00:54:36;;;;;;;20.57;11.33;;;;;;;-3.41;100.00;98784.84;1650253;85;21079;-69
2022/02/06 00:57:06;;;;;;;20.13;10.23;;;;;;;-3.43;100.00;98774.39;1620865;87;21105;-68
2022/02/06 00:59:33;;;;;;;21.90;10.47;;;;;;;-3.40;100.00;98766.20;1646204;85;21087;-69
2022/02/06 01:02:02;;;;;;;20.50;10.43;;;;;;;-3.42;100.00;98755.39;1655260;83;21063;-70
2022/02/06 01:04:34;;;;;;;19.70;10.60;;;;;;;-3.40;100.00;98737.62;1643177;85;21134;-70
2022/02/06 01:06:58;;;;;;;19.87;10.40;;;;;;;-3.39;100.00;98722.14;1675635;85;21150;-70
2022/02/06 01:09:32;;;;;;;20.97;10.67;;;;;;;-3.40;100.00;98707.22;1677722;85;21000;-70
2022/02/06 01:11:59;;;;;;;21.20;11.67;;;;;;;-3.44;100.00;98686.30;1660024;85;21036;-69
2022/02/06 01:19:34;;;;;;;19.73;10.40;;;;;;;-3.45;100.00;98362.21;1641367;86;21072;-69
2022/02/06 01:22:03;;;;;;;20.60;11.23;;;;;;;-3.40;100.00;98373.72;1604226;88;21069;-69
2022/02/06 01:29:36;;;;;;;22.03;10.93;;;;;;;-3.36;100.00;98365.92;1624298;87;21124;-69
2022/02/06 01:32:04;;;;;;;20.83;11.40;;;;;;;-3.34;100.00;98363.16;1628778;87;21073;-69
2022/02/06 01:34:52;;;;;;;20.80;10.93;;;;;;;-3.32;100.00;98363.86;1628062;88;21554;-69
2022/02/06 01:42:40;;;;;;;20.57;10.60;;;;;;;-3.29;100.00;98360.48;1626583;87;21084;-69
2022/02/06 01:45:29;;;;;;;21.67;10.80;;;;;;;-3.27;100.00;98369.13;1609264;88;21053;-69
2022/02/06 02:01:30;;;;;;;25.00;11.80;;;;;;;-3.21;100.00;98360.34;1602753;88;21040;-69
2022/02/06 02:24:48;;;;;;;24.00;11.23;;;;;;;-3.08;100.00;98346.00;1699751;83;21129;-70
2022/02/06 02:32:51;;;;;;;21.30;10.60;;;;;;;-3.06;100.00;98345.88;1785462;79;21002;-69
2022/02/06 02:48:24;;;;;;;21.37;11.20;;;;;;;-2.88;100.00;98332.44;1769708;79;21015;-70
2022/02/06 02:50:57;;;;;;;20.50;10.43;;;;;;;-2.84;100.00;98327.73;1784052;79;21057;-70
2022/02/06 02:53:28;;;;;;;21.73;11.53;;;;;;;-2.82;100.00;98320.50;1783857;79;20983;-70
2022/02/06 03:03:40;;;;;;;20.97;10.60;;;;;;;-2.73;100.00;98311.78;1695206;83;21038;-70
2022/02/06 03:06:08;;;;;;;21.63;11.40;;;;;;;-2.71;100.00;98312.52;1705227;83;21009;-68
2022/02/06 03:08:44;;;;;;;22.53;11.77;;;;;;;-2.70;100.00;98302.27;1710031;83;20973;-69
2022/02/06 03:11:11;;;;;;;22.60;11.40;;;;;;;-2.68;100.00;98302.98;1691410;84;21046;-70
2022/02/06 03:13:52;;;;;;;21.60;11.63;;;;;;;-2.67;100.00;98298.55;1684192;85;21529;-69
2022/02/06 03:21:19;;;;;;;23.90;12.27;;;;;;;-2.74;100.00;98302.19;1667971;83;21077;-70
2022/02/06 03:23:49;;;;;;;24.73;12.37;;;;;;;-2.74;100.00;98311.45;1630249;86;21486;-69
2022/02/06 03:26:12;;;;;;;23.17;12.37;;;;;;;-2.76;100.00;98305.91;1602930;88;21086;-70
2022/02/06 03:28:38;;;;;;;23.03;12.33;;;;;;;-2.75;100.00;98306.28;1607201;87;21090;-72
2022/02/06 03:31:09;;;;;;;25.60;12.73;;;;;;;-2.75;100.00;98304.47;1614027;87;21176;-70
2022/02/06 03:33:36;;;;;;;22.87;13.23;;;;;;;-2.72;100.00;98300.74;1654591;84;21479;-69
2022/02/06 03:36:03;;;;;;;25.27;13.53;;;;;;;-2.72;100.00;98308.19;1646747;84;20999;-69
2022/02/06 03:38:30;;;;;;;21.27;11.93;;;;;;;-2.72;100.00;98305.54;1639115;85;21033;-70
2022/02/06 03:41:05;;;;;;;23.97;12.83;;;;;;;-2.73;100.00;98316.25;1728330;81;21084;-69
2022/02/06 03:43:41;;;;;;;23.80;13.20;;;;;;;-2.73;100.00;98313.11;1757144;81;21629;-70
2022/02/06 03:46:07;;;;;;;24.10;13.50;;;;;;;-2.73;100.00;98316.25;1761464;80;21062;-69
2022/02/06 03:48:41;;;;;;;24.10;12.70;;;;;;;-2.74;100.00;98324.67;1727396;81;21594;-69
2022/02/06 03:51:04;;;;;;;25.30;13.90;;;;;;;-2.75;100.00;98316.86;1768327;81;21092;-69
2022/02/06 03:53:27;;;;;;;25.67;13.70;;;;;;;-2.76;100.00;98324.44;1762630;80;21026;-69
2022/02/06 03:55:54;;;;;;;24.37;13.50;;;;;;;-2.76;100.00;98329.27;1702419;82;21148;-70
2022/02/06 03:58:21;;;;;;;28.17;15.43;;;;;;;-2.77;100.00;98326.25;1685614;83;21031;-69
2022/02/06 04:00:49;;;;;;;26.20;14.20;;;;;;;-2.76;100.00;98330.59;1715121;83;21046;-70
2022/02/06 04:03:16;;;;;;;29.43;14.50;;;;;;;-2.74;100.00;98335.75;1693847;83;21487;-69
2022/02/06 04:05:48;;;;;;;25.40;14.17;;;;;;;-2.77;100.00;98336.83;1690792;84;21023;-69
2022/02/06 04:08:16;;;;;;;28.87;14.33;;;;;;;-2.77;100.00;98346.09;1715601;83;20995;-70
2022/02/06 04:10:51;;;;;;;26.70;13.87;;;;;;;-2.81;100.00;98344.68;1718553;81;21023;-68
2022/02/06 04:13:23;;;;;;;25.67;14.23;;;;;;;-2.86;100.00;98334.96;1769759;80;21025;-70
2022/02/06 04:15:55;;;;;;;25.37;13.95;;;;;;;-2.91;100.00;98343.27;1762140;80;21048;-70
2022/02/06 04:18:27;;;;;;;24.80;13.93;;;;;;;-2.94;100.00;98353.27;1764618;80;20986;-69
2022/02/06 04:20:49;;;;;;;25.53;14.27;;;;;;;-2.99;100.00;98356.31;1788895;79;20989;-70
2022/02/06 04:23:16;;;;;;;27.00;14.83;;;;;;;-3.03;100.00;98354.03;1811256;78;21021;-70
2022/02/06 04:25:43;;;;;;;27.00;14.73;;;;;;;-3.08;100.00;98361.00;1812328;77;20982;-70
2022/02/06 04:28:10;;;;;;;28.53;14.97;;;;;;;-3.13;100.00;98365.86;1810895;78;20990;-70
2022/02/06 04:30:38;;;;;;;26.07;14.37;;;;;;;-3.19;100.00;98364.53;1783115;80;21006;-69
2022/02/06 04:33:08;;;;;;;26.50;15.13;;;;;;;-3.25;100.00;98370.33;1813580;78;20997;-70
2022/02/06 04:35:37;;;;;;;29.30;15.83;;;;;;;-3.31;100.00;98372.13;1786541;80;21024;-70
2022/02/06 04:38:30;;;;;;;29.50;15.40;;;;;;;-3.36;100.00;98380.45;1782593;79;21006;-70
2022/02/06 04:40:57;;;;;;;30.07;15.80;;;;;;;-3.39;100.00;98388.62;1787709;78;21489;-70
2022/02/06 04:51:56;;;;;;;38.63;20.17;;;;;;;-3.53;100.00;98395.01;1783429;80;21013;-70
2022/02/06 05:16:39;;;;;;;39.53;20.33;;;;;;;-3.62;100.00;98428.77;1751727;80;21053;-69
2022/02/06 05:29:49;;;;;;;46.18;24.65;;;;;;;-3.73;100.00;98436.22;1780134;80;21053;-70
2022/02/06 05:32:23;;;;;;;39.17;22.80;;;;;;;-3.73;100.00;98438.03;1771198;80;20999;-70
2022/02/06 05:34:45;;;;;;;44.73;23.97;;;;;;;-3.72;100.00;98443.66;1749115;80;21016;-70
2022/02/06 05:37:14;;;;;;;43.83;24.00;;;;;;;-3.74;100.00;98443.77;1727810;80;21014;-70
2022/02/06 05:39:49;;;;;;;47.27;25.57;;;;;;;-3.73;100.00;98448.11;1757402;80;21045;-71
2022/02/06 05:42:17;;;;;;;48.47;25.53;;;;;;;-3.72;100.00;98448.94;1775683;80;21475;-70
2022/02/06 05:44:48;;;;;;;48.27;26.23;;;;;;;-3.69;100.00;98446.90;1752840;81;21069;-70
2022/02/06 05:47:14;;;;;;;46.03;24.83;;;;;;;-3.62;100.00;98444.63;1776815;80;21026;-70
2022/02/06 05:49:41;;;;;;;49.93;25.33;;;;;;;-3.46;100.00;98435.84;1755724;80;21058;-71
2022/02/06 05:52:08;;;;;;;46.90;24.83;;;;;;;-3.23;100.00;98423.91;1774406;80;21038;-70
2022/02/06 05:54:35;;;;;;;49.07;25.50;;;;;;;-3.07;100.00;98419.06;1776813;80;21506;-71
2022/02/06 05:57:03;;;;;;;50.83;25.97;;;;;;;-2.97;100.00;98415.69;1753897;80;21002;-70
2022/02/06 05:59:32;;;;;;;48.77;27.63;;;;;;;-2.94;100.00;98418.06;1779708;80;21550;-70
2022/02/06 06:01:59;;;;;;;53.70;27.10;;;;;;;-2.86;100.00;98410.35;1749411;81;21519;-71
2022/02/06 06:04:29;;;;;;;50.93;27.17;;;;;;;-2.80;100.00;98404.54;1776351;79;21054;-70
2022/02/06 06:06:56;;;;;;;55.37;29.20;;;;;;;-2.71;100.00;98405.12;1755122;79;21024;-70
2022/02/06 06:09:23;;;;;;;53.70;28.17;;;;;;;-2.66;100.00;98406.05;1753991;81;20998;-70
2022/02/06 06:11:51;;;;;;;53.77;28.93;;;;;;;-2.62;100.00;98410.60;1778189;80;20982;-71
2022/02/06 06:14:18;;;;;;;54.53;29.23;;;;;;;-2.58;100.00;98417.34;1749746;81;21018;-70
2022/02/06 06:16:45;;;;;;;52.93;29.20;;;;;;;-2.54;100.00;98412.14;1744825;82;21569;-69
2022/02/06 06:19:14;;;;;;;61.70;32.30;;;;;;;-2.50;100.00;98415.73;1661184;83;21037;-71
2022/02/06 06:21:45;;;;;;;59.17;30.70;;;;;;;-2.46;100.00;98411.48;1664723;85;21546;-71
2022/02/06 06:24:16;;;;;;;58.30;30.03;;;;;;;-2.42;100.00;98411.61;1689060;84;21053;-72
2022/02/06 06:26:42;;;;;;;61.27;30.53;;;;;;;-2.41;100.00;98416.75;1691185;84;21097;-71
2022/02/06 06:29:09;;;;;;;56.83;28.57;;;;;;;-2.39;100.00;98417.48;1694017;83;21058;-70
2022/02/06 06:31:39;;;;;;;60.07;31.47;;;;;;;-2.34;100.00;98409.13;1667510;85;21575;-70
2022/02/06 06:34:06;;;;;;;49.43;27.17;;;;;;;-2.29;100.00;98414.88;1664379;85;21057;-70
2022/02/06 06:36:35;;;;;;;44.10;22.67;;;;;;;-2.22;100.00;98411.23;1693230;83;21505;-70
2022/02/06 06:39:03;;;;;;;42.17;22.03;;;;;;;-2.16;100.00;98414.22;1690051;84;21141;-69
2022/02/06 06:41:30;;;;;;;36.87;19.60;;;;;;;-2.09;100.00;98407.89;1690717;84;21166;-69
2022/02/06 06:43:57;;;;;;;34.30;18.83;;;;;;;-2.00;100.00;98404.48;1665425;85;21483;-70
2022/02/06 06:46:23;;;;;;;32.23;17.60;;;;;;;-1.91;100.00;98406.33;1668177;85;20982;-71
2022/02/06 06:48:50;;;;;;;33.00;18.40;;;;;;;-1.82;100.00;98406.02;1670058;84;21022;-70
2022/02/06 06:51:17;;;;;;;30.27;17.90;;;;;;;-1.74;100.00;98406.67;1746710;81;21594;-70
2022/02/06 06:53:48;;;;;;;33.97;17.93;;;;;;;-1.67;100.00;98407.81;1717243;82;21035;-70
2022/02/06 06:56:26;;;;;;;33.37;17.47;;;;;;;-1.62;100.00;98406.10;1752090;81;21022;-70
2022/02/06 06:58:49;;;;;;;;;;;;;;;-1.61;100.00;98409.95;1717256;82;21014;-70
2022/02/06 07:03:48;;;;;;;32.97;18.50;;;;;;;-1.43;100.00;98405.34;1723460;82;20998;-70
2022/02/06 07:06:16;;;;;;;33.73;18.73;;;;;;;-1.29;100.00;98404.09;1729948;81;21568;-71
2022/02/06 07:08:43;;;;;;;34.40;18.60;;;;;;;-1.15;100.00;98396.61;1746542;81;21049;-71
2022/02/06 07:11:11;;;;;;;36.10;19.10;;;;;;;-0.99;100.00;98396.07;1753240;81;21065;-71
2022/02/06 07:13:39;;;;;;;38.90;21.10;;;;;;;-0.83;100.00;98400.00;1774434;80;21136;-71
2022/02/06 07:16:06;;;;;;;39.73;21.50;;;;;;;-0.70;100.00;98399.72;1753857;81;20978;-71
2022/02/06 07:18:33;;;;;;;33.33;19.20;;;;;;;-0.69;100.00;98393.41;1778707;79;21523;-70
2022/02/06 07:21:01;;;;;;;32.23;17.87;;;;;;;-0.63;100.00;98404.32;1782028;80;21514;-70
2022/02/06 07:23:29;;;;;;;34.23;18.10;;;;;;;-0.54;100.00;98409.78;1758638;80;21601;-71
2022/02/06 07:26:06;;;;;;;29.47;16.00;;;;;;;-0.46;100.00;98409.89;1781444;80;20999;-70
2022/02/06 07:28:33;;;;;;;28.50;15.93;;;;;;;-0.33;100.00;98405.64;1759173;80;21034;-71
2022/02/06 07:31:00;;;;;;;28.70;16.23;;;;;;;-0.18;100.00;98400.21;1785913;80;21052;-71
2022/02/06 07:33:27;;;;;;;29.13;15.23;;;;;;;-0.10;100.00;98408.31;1786305;80;20986;-73
2022/02/06 07:35:54;;;;;;;27.47;15.17;;;;;;;-0.18;100.00;98426.78;1788349;80;21557;-72
2022/02/06 07:38:21;;;;;;;25.53;14.37;;;;;;;-0.27;100.00;98432.95;1782814;80;21013;-70
2022/02/06 07:40:49;;;;;;;28.43;14.10;;;;;;;-0.25;100.00;98434.50;1779893;80;21014;-71
2022/02/06 07:43:16;;;;;;;26.47;14.70;;;;;;;-0.15;100.00;98447.76;1780738;79;20974;-71
2022/02/06 07:45:43;;;;;;;26.83;15.40;;;;;;;-0.04;100.00;98452.07;1782942;79;21053;-72
2022/02/06 07:48:12;;;;;;;26.50;14.40;;;;;;;0.04;100.00;98460.19;1731734;80;21793;-71
2022/02/06 07:50:39;;;;;;;24.10;12.80;;;;;;;0.17;100.00;98470.50;1754506;81;21794;-69
2022/02/06 07:53:07;;;;;;;25.93;13.63;;;;;;;0.21;100.00;98471.05;1782234;80;20998;-71
2022/02/06 07:55:34;;;;;;;24.23;13.03;;;;;;;0.19;100.00;98485.81;1757956;80;21526;-72
2022/02/06 07:58:02;;;;;;;23.67;13.50;;;;;;;0.08;100.00;98493.45;1783797;80;20970;-70
2022/02/06 08:00:32;;;;;;;26.73;14.33;;;;;;;0.11;100.00;98513.11;1760843;80;21456;-71
2022/02/06 08:02:59;;;;;;;29.50;15.27;;;;;;;0.22;100.00;98514.77;1782604;80;21061;-71
2022/02/06 08:05:27;;;;;;;25.40;12.93;;;;;;;0.35;100.00;98522.44;1781490;80;21057;-71
2022/02/06 08:07:56;;;;;;;24.87;13.53;;;;;;;0.33;100.00;98529.72;1759381;80;21029;-71
2022/02/06 08:10:23;;;;;;;26.20;12.77;;;;;;;0.24;100.00;98547.87;1756368;81;21019;-72
2022/02/06 08:13:06;;;;;;;25.93;13.53;;;;;;;0.21;100.00;98555.62;1802905;79;21053;-71
2022/02/06 08:15:24;;;;;;;;;;;;;;;0.22;100.00;98559.14;1783244;80;21039;-71
2022/02/06 08:17:52;;;;;;;21.67;11.33;;;;;;;0.29;100.00;98569.55;1785736;79;20106;-71
2022/02/06 08:20:21;;;;;;;22.90;11.87;;;;;;;0.32;100.00;98570.58;1783209;79;21029;-71
2022/02/06 08:22:48;;;;;;;23.63;12.90;;;;;;;0.32;100.00;98567.45;1757162;79;21081;-71
2022/02/06 08:25:15;;;;;;;23.97;13.43;;;;;;;0.34;100.00;98583.27;1766124;80;21532;-71
2022/02/06 08:27:42;;;;;;;24.80;13.73;;;;;;;0.27;100.00;98588.30;1778637;79;21054;-70
2022/02/06 08:30:11;;;;;;;25.83;13.57;;;;;;;0.29;100.00;98598.80;1775230;79;21030;-71
2022/02/06 08:32:38;;;;;;;24.83;13.27;;;;;;;0.35;100.00;98599.55;1787459;79;20979;-71
2022/02/06 08:35:09;;;;;;;28.03;15.43;;;;;;;0.35;100.00;98597.75;1789411;79;21011;-71
2022/02/06 08:37:36;;;;;;;25.63;14.00;;;;;;;0.39;100.00;98603.63;1786417;79;21067;-70
2022/02/06 08:40:12;;;;;;;24.03;13.63;;;;;;;0.46;100.00;98603.41;1745001;80;20994;-71
2022/02/06 08:42:36;;;;;;;23.53;13.70;;;;;;;0.55;100.00;98603.05;1781367;80;21066;-71
2022/02/06 08:45:04;;;;;;;25.43;12.97;;;;;;;0.60;100.00;98607.42;1788707;79;21003;-72
2022/02/06 08:47:32;;;;;;;23.13;12.67;;;;;;;0.68;100.00;98611.55;1786446;79;21165;-71
2022/02/06 08:49:59;;;;;;;27.13;14.00;;;;;;;0.78;100.00;98623.98;1783618;79;21072;-71
2022/02/06 08:52:26;;;;;;;24.30;13.63;;;;;;;0.84;100.00;98616.27;1763245;80;21061;-72
2022/02/06 08:54:54;;;;;;;24.57;12.17;;;;;;;0.93;100.00;98616.73;1769269;79;21491;-71
2022/02/06 08:59:54;;;;;;;24.37;12.17;;;;;;;1.00;100.00;98624.16;1706159;83;21077;-71
2022/02/06 09:02:25;;;;;;;24.43;12.67;;;;;;;1.07;100.00;98622.59;1710970;83;21103;-71
2022/02/06 09:04:59;;;;;;;26.37;12.53;;;;;;;1.16;100.00;98611.06;1667077;84;21037;-71
2022/02/06 09:07:25;;;;;;;22.03;11.93;;;;;;;1.22;100.00;98622.47;1678969;84;21516;-71
2022/02/06 09:09:58;;;;;;;24.00;12.70;;;;;;;1.21;100.00;98612.80;1695320;83;21081;-71
2022/02/06 09:12:23;;;;;;;29.03;14.90;;;;;;;1.24;100.00;98619.17;1698458;83;21502;-70
2022/02/06 09:14:51;;;;;;;25.90;14.10;;;;;;;1.23;100.00;98619.31;1686847;83;21521;-71
2022/02/06 09:17:17;;;;;;;27.03;13.57;;;;;;;1.25;100.00;98614.67;1663727;85;21096;-72
2022/02/06 09:19:44;;;;;;;21.73;11.77;;;;;;;1.31;100.00;98614.93;1668744;85;21049;-71
2022/02/06 09:22:13;;;;;;;23.77;12.13;;;;;;;1.38;100.00;98611.66;1692249;83;21013;-72
2022/02/06 09:24:41;;;;;;;21.70;11.63;;;;;;;1.44;100.00;98622.58;1694233;84;21029;-71
2022/02/06 09:27:08;;;;;;;26.00;12.33;;;;;;;1.49;100.00;98620.31;1691146;83;21064;-72
2022/02/06 09:29:37;;;;;;;24.77;11.63;;;;;;;1.54;100.00;98621.21;1668550;83;21202;-71
2022/02/06 09:37:08;;;;;;;21.17;10.97;;;;;;;1.68;100.00;98612.72;1641695;85;21182;-72
2022/02/06 09:39:40;;;;;;;21.67;11.40;;;;;;;1.69;100.00;98626.87;1659763;84;21627;-72
2022/02/06 09:42:07;;;;;;;21.30;10.80;;;;;;;1.66;100.00;98623.98;1662350;85;20965;-73
2022/02/06 09:44:34;;;;;;;22.63;10.87;;;;;;;1.67;100.00;98622.19;1662305;85;20965;-72
2022/02/06 09:47:01;;;;;;;21.83;10.30;;;;;;;1.69;100.00;98628.20;1646550;85;21039;-72
2022/02/06 09:49:30;;;;;;;20.23;10.60;;;;;;;1.66;100.00;98626.66;1682512;84;21067;-72
2022/02/06 09:51:58;;;;;;;20.67;10.57;;;;;;;1.75;100.00;98625.42;1638013;86;21617;-73
2022/02/06 09:54:27;;;;;;;23.10;11.07;;;;;;;1.81;100.00;98622.18;1642505;86;21015;-72
2022/02/06 09:56:56;;;;;;;19.93;10.17;;;;;;;1.79;100.00;98618.80;1652125;86;21567;-73
2022/02/06 09:59:25;;;;;;;21.70;10.40;;;;;;;1.82;100.00;98616.67;1689232;84;21012;-72
2022/02/06 10:01:56;;;;;;;18.37;9.77;;;;;;;1.87;100.00;98621.06;1667068;85;21074;-72
2022/02/06 10:04:27;;;;;;;19.23;10.40;;;;;;;1.91;100.00;98613.60;1682074;85;21091;-72
2022/02/06 10:07:05;;;;;;;19.37;10.50;;;;;;;1.96;100.00;98615.83;1647045;86;21083;-73
2022/02/06 10:09:43;;;;;;;19.97;9.83;;;;;;;2.04;100.00;98617.25;1630780;87;21045;-70
2022/02/06 10:12:10;;;;;;;20.00;9.60;;;;;;;2.12;100.00;98617.31;1646609;86;21098;-72
2022/02/06 10:14:37;;;;;;;21.33;10.37;;;;;;;2.13;100.00;98614.17;1670301;85;21060;-72
2022/02/06 10:17:05;;;;;;;21.53;10.63;;;;;;;2.13;100.00;98612.34;1673015;85;21145;-72
2022/02/06 10:19:34;;;;;;;23.67;10.37;;;;;;;2.20;100.00;98605.41;1629010;86;21199;-72
2022/02/06 10:22:00;;;;;;;22.13;11.13;;;;;;;2.28;100.00;98612.63;1659434;86;21079;-71
2022/02/06 10:24:31;;;;;;;21.17;10.00;;;;;;;2.32;100.00;98605.16;1643078;86;21066;-72
2022/02/06 10:32:06;;;;;;;21.40;12.27;;;;;;;2.29;100.00;98606.31;1658027;86;21051;-72
2022/02/06 10:34:36;;;;;;;21.23;11.53;;;;;;;2.30;100.00;98617.81;1648949;86;21114;-71
2022/02/06 10:37:23;;;;;;;21.90;11.33;;;;;;;2.24;100.00;98616.09;1623333;87;21038;-72
2022/02/06 10:40:06;;;;;;;17.80;9.83;;;;;;;2.27;100.00;98625.64;1623020;87;21083;-72
2022/02/06 10:42:38;;;;;;;18.65;9.28;;;;;;;2.36;100.00;98627.89;1601257;87;21083;-72
2022/02/06 10:45:19;;;;;;;17.43;8.80;;;;;;;2.37;100.00;98625.04;1578680;90;21623;-70
2022/02/06 10:47:49;;;;;;;17.37;8.70;;;;;;;2.47;100.00;98632.97;1598809;89;21069;-72
2022/02/06 10:50:26;;;;;;;16.33;8.40;;;;;;;2.56;100.00;98620.54;1597207;89;21131;-71
2022/02/06 10:53:12;;;;;;;16.20;8.40;;;;;;;2.63;100.00;98621.09;1595778;89;21139;-71
2022/02/06 10:56:00;;;;;;;18.37;8.67;;;;;;;2.72;100.00;98619.83;1516633;93;21110;-71
2022/02/06 10:58:32;;;;;;;16.97;8.63;;;;;;;2.69;100.00;98613.45;1566604;90;21554;-71
2022/02/06 11:01:08;;;;;;;19.17;9.68;;;;;;;2.59;100.00;98612.23;1563354;90;21204;-70
2022/02/06 11:03:38;;;;;;;17.23;9.47;;;;;;;2.57;100.00;98616.39;1570877;90;21050;-72
2022/02/06 11:06:42;;;;;;;18.20;9.50;;;;;;;2.56;100.00;98613.36;1562966;91;21071;-70
2022/02/06 11:08:53;;;;;;;20.83;9.47;;;;;;;2.58;100.00;98610.55;1542871;90;21131;-70
2022/02/06 11:11:34;;;;;;;15.03;7.90;;;;;;;2.60;100.00;98613.89;1558310;90;21128;-70
2022/02/06 11:14:11;;;;;;;14.53;7.07;;;;;;;2.59;100.00;98614.39;1579762;90;21595;-71
2022/02/06 11:16:34;;;;;;;15.70;8.28;;;;;;;2.54;100.00;98614.52;1586551;89;21600;-69
2022/02/06 11:19:07;;;;;;;16.97;8.43;;;;;;;2.54;100.00;98619.36;1531708;89;21327;-69
2022/02/06 11:21:30;;;;;;;15.47;8.00;;;;;;;2.60;100.00;98621.42;1550631;90;21075;-71
2022/02/06 11:23:58;;;;;;;15.70;7.87;;;;;;;2.56;100.00;98626.70;1580944;90;21189;-69
2022/02/06 11:26:27;;;;;;;15.27;7.37;;;;;;;2.56;100.00;98621.87;1592924;90;21618;-69
2022/02/06 11:28:56;;;;;;;16.20;7.90;;;;;;;2.60;100.00;98625.42;1541073;91;21078;-70
2022/02/06 11:31:25;;;;;;;14.50;6.97;;;;;;;2.75;100.00;98619.02;1547167;91;21104;-71
2022/02/06 11:33:52;;;;;;;14.87;7.40;;;;;;;2.85;100.00;98619.77;1624154;87;21063;-68
2022/02/06 11:42:57;;;;;;;17.50;8.20;;;;;;;2.89;100.00;98622.95;1629327;88;21143;-71
2022/02/06 11:45:11;;;;;;;14.77;7.30;;;;;;;2.73;100.00;98621.52;1682182;85;21032;-70
2022/02/06 11:47:47;;;;;;;16.03;7.70;;;;;;;2.80;100.00;98620.73;1687796;83;21099;-71
2022/02/06 11:50:15;;;;;;;14.50;7.00;;;;;;;2.85;100.00;98624.24;1680836;83;21149;-70
2022/02/06 11:52:54;;;;;;;12.33;7.07;;;;;;;2.80;100.00;98622.06;1714479;83;21119;-71
2022/02/06 11:55:36;;;;;;;13.73;7.13;;;;;;;2.72;100.00;98624.66;1704680;83;21079;-71
2022/02/06 11:58:28;;;;;;;15.13;6.80;;;;;;;2.73;100.00;98629.52;1717501;83;21067;-71
2022/02/06 12:01:16;;;;;;;18.53;9.07;;;;;;;2.82;100.00;98625.91;1688684;84;21055;-71
2022/02/06 12:04:25;;;;;;;14.27;7.70;;;;;;;2.79;100.00;98639.05;1647950;85;21533;-71
2022/02/06 12:06:57;;;;;;;14.10;6.87;;;;;;;2.69;100.00;98640.15;1733106;82;21073;-70
2022/02/06 12:09:29;;;;;;;12.37;6.53;;;;;;;2.69;100.00;98646.31;1723460;82;21034;-70
2022/02/06 12:12:14;;;;;;;;;;;;;;;2.73;100.00;98650.88;1729525;82;21082;-68
2022/02/06 12:14:51;;;;;;;15.43;6.73;;;;;;;2.79;100.00;98644.91;1724650;82;20233;-71
2022/02/06 12:17:25;;;;;;;17.90;7.90;;;;;;;2.69;100.00;98664.17;1727929;82;21565;-70
2022/02/06 12:20:10;;;;;;;17.20;8.03;;;;;;;2.61;100.00;98667.11;1722543;82;21038;-69
2022/02/06 12:22:44;;;;;;;18.27;8.30;;;;;;;2.50;100.00;98670.50;1735082;82;21022;-72
2022/02/06 12:25:23;;;;;;;17.83;8.27;;;;;;;2.42;100.00;98666.77;1735933;82;21527;-71
2022/02/06 12:27:52;;;;;;;15.30;7.83;;;;;;;2.33;100.00;98673.53;1734640;82;21042;-71
2022/02/06 12:30:24;;;;;;;15.27;7.57;;;;;;;2.31;100.00;98667.52;1726493;82;21144;-70
2022/02/06 12:32:51;;;;;;;16.10;7.63;;;;;;;2.30;100.00;98661.83;1698964;83;21058;-69
2022/02/06 12:38:02;;;;;;;15.80;8.33;;;;;;;2.36;100.00;98647.89;1701776;81;21030;-69
2022/02/06 12:40:31;;;;;;;18.47;9.40;;;;;;;2.41;100.00;98646.94;1699619;82;21062;-71
2022/02/06 12:43:00;;;;;;;18.03;9.00;;;;;;;2.42;100.00;98648.09;1711275;83;21530;-70
2022/02/06 12:45:28;;;;;;;15.87;8.13;;;;;;;2.37;100.00;98650.89;1721425;82;21050;-70
2022/02/06 12:48:07;;;;;;;16.77;8.87;;;;;;;2.33;100.00;98650.86;1723565;82;21038;-70
2022/02/06 12:50:36;;;;;;;17.93;8.97;;;;;;;2.24;100.00;98658.77;1720677;82;21025;-70
2022/02/06 12:53:05;;;;;;;16.73;9.23;;;;;;;2.17;100.00;98656.88;1723440;82;21041;-71
2022/02/06 12:55:35;;;;;;;18.37;8.63;;;;;;;2.11;100.00;98656.98;1750666;81;20982;-70
2022/02/06 12:58:05;;;;;;;17.03;8.03;;;;;;;2.13;100.00;98657.67;1750217;81;20989;-69
2022/02/06 13:00:44;;;;;;;14.23;7.63;;;;;;;2.14;100.00;98648.66;1747473;81;21097;-70
2022/02/06 13:03:29;;;;;;;21.03;11.10;;;;;;;2.13;100.00;98652.34;1693016;81;21065;-70
2022/02/06 13:06:01;;;;;;;20.20;9.90;;;;;;;2.11;100.00;98649.45;1747259;81;21034;-70
2022/02/06 13:08:29;;;;;;;15.55;8.15;;;;;;;2.09;100.00;98653.13;1726445;82;21087;-70
2022/02/06 13:13:40;;;;;;;17.40;8.23;;;;;;;1.97;100.00;98658.34;1648690;86;21162;-70
2022/02/06 13:16:34;;;;;;;15.20;8.07;;;;;;;1.92;100.00;98653.94;1632621;87;21632;-70
2022/02/06 13:21:26;;;;;;;14.27;7.90;;;;;;;1.85;100.00;98660.36;1672196;85;21132;-70
2022/02/06 13:26:32;;;;;;;15.93;7.70;;;;;;;1.81;100.00;98661.66;1539502;92;21137;-69
2022/02/06 13:31:35;;;;;;;15.30;7.77;;;;;;;1.70;100.00;98667.20;1520359;91;21071;-69
2022/02/06 13:34:18;;;;;;;17.13;8.50;;;;;;;1.65;100.00;98663.63;1541694;90;21052;-70
2022/02/06 13:39:08;;;;;;;17.53;8.17;;;;;;;1.55;100.00;98658.00;1560699;90;21060;-69
2022/02/06 13:41:33;;;;;;;16.23;8.20;;;;;;;1.54;100.00;98662.50;1549557;91;21079;-69
2022/02/06 13:44:04;;;;;;;16.50;8.10;;;;;;;1.57;100.00;98660.86;1531577;92;21207;-69
2022/02/06 13:46:35;;;;;;;16.57;8.45;;;;;;;1.57;100.00;98656.86;1599449;88;21054;-70
2022/02/06 13:49:05;;;;;;;15.63;7.67;;;;;;;1.56;100.00;98661.00;1593833;89;21176;-70
2022/02/06 13:51:42;;;;;;;15.07;7.97;;;;;;;1.55;100.00;98661.50;1585045;89;21129;-70
2022/02/06 13:54:06;;;;;;;17.17;8.27;;;;;;;1.54;100.00;98660.31;1595715;89;21105;-69
2022/02/06 13:56:35;;;;;;;17.87;8.10;;;;;;;1.54;100.00;98662.50;1591901;88;21077;-69
2022/02/06 13:59:11;;;;;;;16.80;8.77;;;;;;;1.51;100.00;98658.80;1558980;88;21073;-69
2022/02/06 14:01:53;;;;;;;17.23;8.90;;;;;;;1.53;100.00;98662.14;1588962;89;21641;-68
2022/02/06 14:04:32;;;;;;;19.93;9.20;;;;;;;1.49;100.00;98660.27;1651898;84;21098;-71
2022/02/06 14:07:19;;;;;;;19.30;8.87;;;;;;;1.44;100.00;98663.86;1655825;86;21086;-70
2022/02/06 14:10:00;;;;;;;16.17;8.60;;;;;;;1.38;100.00;98660.94;1667489;84;21483;-70
2022/02/06 14:12:23;;;;;;;17.13;8.47;;;;;;;1.29;100.00;98663.52;1702850;83;21527;-70
2022/02/06 14:14:59;;;;;;;17.63;8.93;;;;;;;1.24;100.00;98668.91;1670989;84;21110;-68
2022/02/06 14:17:33;;;;;;;17.37;8.37;;;;;;;1.21;100.00;98666.05;1689881;84;21105;-71
2022/02/06 14:20:14;;;;;;;19.57;9.47;;;;;;;1.19;100.00;98668.02;1667833;84;21486;-69
2022/02/06 14:22:48;;;;;;;20.67;9.70;;;;;;;1.10;100.00;98671.06;1657092;85;21073;-70